sensor_id;sensor_type;location;lat;lon;timestamp;P1;durP1;ratioP1;P2;durP2;ratioP2
4748;SDS011;2388;53.582;9.962;2022-11-15T00:01:47;31.03;;;17.60;;
4748;SDS011;2388;53.582;9.962;2022-11-15T00:04:12;31.97;;;18.07;;
4748;SDS011;2388;53.582;9.962;2022-11-15T00:06:38;26.93;;;18.30;;
4748;SDS011;2388;53.582;9.962;2022-11-15T00:09:03;22.97;;;17.23;;
4748;SDS011;2388;53.582;9.962;2022-11-15T00:11:29;26.10;;;17.60;;
4748;SDS011;2388;53.582;9.962;2022-11-15T00:13:55;30.07;;;18.33;;
4748;SDS011;2388;53.582;9.962;2022-11-15T00:16:21;28.07;;;17.80;;
4748;SDS011;2388;53.582;9.962;2022-11-15T00:18:47;29.20;;;18.00;;
4748;SDS011;2388;53.582;9.962;2022-11-15T00:21:13;24.40;;;18.20;;
4748;SDS011;2388;53.582;9.962;2022-11-15T00:23:39;27.50;;;17.67;;
4748;SDS011;2388;53.582;9.962;2022-11-15T00:26:06;28.10;;;18.00;;
4748;SDS011;2388;53.582;9.962;2022-11-15T00:28:32;26.63;;;17.97;;
4748;SDS011;2388;53.582;9.962;2022-11-15T00:31:04;30.27;;;17.80;;
4748;SDS011;2388;53.582;9.962;2022-11-15T00:33:31;30.23;;;18.77;;
4748;SDS011;2388;53.582;9.962;2022-11-15T00:36:01;26.57;;;17.60;;
4748;SDS011;2388;53.582;9.962;2022-11-15T00:38:34;25.17;;;16.80;;
4748;SDS011;2388;53.582;9.962;2022-11-15T00:41:00;27.33;;;18.40;;
4748;SDS011;2388;53.582;9.962;2022-11-15T00:43:26;26.33;;;17.17;;
4748;SDS011;2388;53.582;9.962;2022-11-15T00:45:52;22.20;;;16.30;;
4748;SDS011;2388;53.582;9.962;2022-11-15T00:48:26;25.03;;;17.93;;
4748;SDS011;2388;53.582;9.962;2022-11-15T00:50:52;27.80;;;17.80;;
4748;SDS011;2388;53.582;9.962;2022-11-15T00:53:17;33.40;;;18.90;;
4748;SDS011;2388;53.582;9.962;2022-11-15T00:55:43;25.73;;;17.43;;
4748;SDS011;2388;53.582;9.962;2022-11-15T00:58:08;26.90;;;18.57;;
4748;SDS011;2388;53.582;9.962;2022-11-15T01:00:34;28.30;;;17.13;;
4748;SDS011;2388;53.582;9.962;2022-11-15T01:03:00;25.07;;;17.60;;
4748;SDS011;2388;53.582;9.962;2022-11-15T01:05:26;22.87;;;16.37;;
4748;SDS011;2388;53.582;9.962;2022-11-15T01:07:53;28.00;;;17.03;;
4748;SDS011;2388;53.582;9.962;2022-11-15T01:10:19;26.80;;;16.83;;
4748;SDS011;2388;53.582;9.962;2022-11-15T01:12:45;29.27;;;18.23;;
4748;SDS011;2388;53.582;9.962;2022-11-15T01:15:10;23.17;;;16.53;;
4748;SDS011;2388;53.582;9.962;2022-11-15T01:17:36;26.47;;;16.87;;
4748;SDS011;2388;53.582;9.962;2022-11-15T01:20:02;25.80;;;17.13;;
4748;SDS011;2388;53.582;9.962;2022-11-15T01:22:27;27.57;;;16.77;;
4748;SDS011;2388;53.582;9.962;2022-11-15T01:24:53;27.13;;;17.30;;
4748;SDS011;2388;53.582;9.962;2022-11-15T01:27:18;28.60;;;17.40;;
4748;SDS011;2388;53.582;9.962;2022-11-15T01:29:44;22.70;;;16.07;;
4748;SDS011;2388;53.582;9.962;2022-11-15T01:32:09;27.30;;;17.60;;
4748;SDS011;2388;53.582;9.962;2022-11-15T01:34:35;27.57;;;16.90;;
4748;SDS011;2388;53.582;9.962;2022-11-15T01:37:00;28.17;;;16.97;;
4748;SDS011;2388;53.582;9.962;2022-11-15T01:39:26;31.33;;;19.30;;
4748;SDS011;2388;53.582;9.962;2022-11-15T01:41:52;27.73;;;18.87;;
4748;SDS011;2388;53.582;9.962;2022-11-15T01:46:59;30.67;;;17.17;;
4748;SDS011;2388;53.582;9.962;2022-11-15T01:49:27;28.43;;;18.23;;
4748;SDS011;2388;53.582;9.962;2022-11-15T01:51:57;26.77;;;17.33;;
4748;SDS011;2388;53.582;9.962;2022-11-15T01:54:23;25.10;;;17.40;;
4748;SDS011;2388;53.582;9.962;2022-11-15T01:56:53;29.07;;;17.07;;
4748;SDS011;2388;53.582;9.962;2022-11-15T01:59:24;27.17;;;17.00;;
4748;SDS011;2388;53.582;9.962;2022-11-15T02:01:51;22.37;;;16.20;;
4748;SDS011;2388;53.582;9.962;2022-11-15T02:04:17;22.70;;;15.67;;
4748;SDS011;2388;53.582;9.962;2022-11-15T02:06:47;21.50;;;15.37;;
4748;SDS011;2388;53.582;9.962;2022-11-15T02:09:13;23.90;;;16.63;;
4748;SDS011;2388;53.582;9.962;2022-11-15T02:11:39;22.97;;;15.67;;
4748;SDS011;2388;53.582;9.962;2022-11-15T02:14:05;24.03;;;16.80;;
4748;SDS011;2388;53.582;9.962;2022-11-15T02:16:55;26.67;;;16.57;;
4748;SDS011;2388;53.582;9.962;2022-11-15T02:28:53;27.63;;;17.20;;
4748;SDS011;2388;53.582;9.962;2022-11-15T02:39:51;21.00;;;15.80;;
4748;SDS011;2388;53.582;9.962;2022-11-15T02:42:53;22.20;;;16.13;;
4748;SDS011;2388;53.582;9.962;2022-11-15T02:45:45;25.00;;;15.47;;
4748;SDS011;2388;53.582;9.962;2022-11-15T02:48:15;19.97;;;14.50;;
4748;SDS011;2388;53.582;9.962;2022-11-15T02:50:41;23.40;;;14.77;;
4748;SDS011;2388;53.582;9.962;2022-11-15T02:53:08;22.00;;;14.93;;
4748;SDS011;2388;53.582;9.962;2022-11-15T02:55:35;23.47;;;16.20;;
4748;SDS011;2388;53.582;9.962;2022-11-15T02:58:06;27.10;;;16.43;;
4748;SDS011;2388;53.582;9.962;2022-11-15T03:00:38;24.30;;;15.27;;
4748;SDS011;2388;53.582;9.962;2022-11-15T03:03:19;24.50;;;16.47;;
4748;SDS011;2388;53.582;9.962;2022-11-15T03:08:32;22.53;;;16.30;;
4748;SDS011;2388;53.582;9.962;2022-11-15T03:11:19;24.83;;;16.00;;
4748;SDS011;2388;53.582;9.962;2022-11-15T03:14:00;24.80;;;15.87;;
4748;SDS011;2388;53.582;9.962;2022-11-15T03:16:38;23.90;;;15.10;;
4748;SDS011;2388;53.582;9.962;2022-11-15T03:19:24;26.20;;;15.20;;
4748;SDS011;2388;53.582;9.962;2022-11-15T03:22:12;22.23;;;14.67;;
4748;SDS011;2388;53.582;9.962;2022-11-15T03:24:41;22.83;;;15.23;;
4748;SDS011;2388;53.582;9.962;2022-11-15T03:27:09;23.77;;;14.50;;
4748;SDS011;2388;53.582;9.962;2022-11-15T03:29:39;21.20;;;15.23;;
4748;SDS011;2388;53.582;9.962;2022-11-15T03:32:11;22.73;;;14.60;;
4748;SDS011;2388;53.582;9.962;2022-11-15T03:34:41;21.53;;;13.60;;
4748;SDS011;2388;53.582;9.962;2022-11-15T03:37:12;22.50;;;15.07;;
4748;SDS011;2388;53.582;9.962;2022-11-15T03:39:41;22.50;;;14.30;;
4748;SDS011;2388;53.582;9.962;2022-11-15T03:44:54;20.23;;;13.47;;
4748;SDS011;2388;53.582;9.962;2022-11-15T03:47:41;21.23;;;13.90;;
4748;SDS011;2388;53.582;9.962;2022-11-15T03:50:18;21.90;;;13.73;;
4748;SDS011;2388;53.582;9.962;2022-11-15T03:52:46;19.67;;;14.60;;
4748;SDS011;2388;53.582;9.962;2022-11-15T03:55:14;21.17;;;14.57;;
4748;SDS011;2388;53.582;9.962;2022-11-15T03:57:41;21.47;;;14.50;;
4748;SDS011;2388;53.582;9.962;2022-11-15T04:00:07;15.27;;;11.93;;
4748;SDS011;2388;53.582;9.962;2022-11-15T04:02:33;18.17;;;13.00;;
4748;SDS011;2388;53.582;9.962;2022-11-15T04:04:59;20.77;;;14.40;;
4748;SDS011;2388;53.582;9.962;2022-11-15T04:07:24;18.27;;;13.40;;
4748;SDS011;2388;53.582;9.962;2022-11-15T04:09:50;20.30;;;12.77;;
4748;SDS011;2388;53.582;9.962;2022-11-15T04:12:37;16.23;;;12.60;;
4748;SDS011;2388;53.582;9.962;2022-11-15T04:15:08;19.07;;;13.17;;
4748;SDS011;2388;53.582;9.962;2022-11-15T04:20:09;21.47;;;13.23;;
4748;SDS011;2388;53.582;9.962;2022-11-15T04:22:56;18.20;;;12.70;;
4748;SDS011;2388;53.582;9.962;2022-11-15T04:25:42;18.10;;;12.73;;
4748;SDS011;2388;53.582;9.962;2022-11-15T04:28:08;23.00;;;13.90;;
4748;SDS011;2388;53.582;9.962;2022-11-15T04:30:34;17.73;;;12.07;;
4748;SDS011;2388;53.582;9.962;2022-11-15T04:33:00;19.83;;;12.70;;
4748;SDS011;2388;53.582;9.962;2022-11-15T04:35:26;19.13;;;12.80;;
4748;SDS011;2388;53.582;9.962;2022-11-15T04:37:51;16.70;;;11.63;;
4748;SDS011;2388;53.582;9.962;2022-11-15T04:40:17;17.03;;;12.03;;
4748;SDS011;2388;53.582;9.962;2022-11-15T04:42:43;23.00;;;13.00;;
4748;SDS011;2388;53.582;9.962;2022-11-15T04:45:09;14.10;;;10.97;;
4748;SDS011;2388;53.582;9.962;2022-11-15T04:47:34;18.50;;;12.70;;
4748;SDS011;2388;53.582;9.962;2022-11-15T04:50:00;18.03;;;12.10;;
4748;SDS011;2388;53.582;9.962;2022-11-15T04:52:26;17.17;;;12.20;;
4748;SDS011;2388;53.582;9.962;2022-11-15T04:54:51;16.83;;;12.10;;
4748;SDS011;2388;53.582;9.962;2022-11-15T04:57:17;19.13;;;13.10;;
4748;SDS011;2388;53.582;9.962;2022-11-15T04:59:42;15.30;;;11.33;;
4748;SDS011;2388;53.582;9.962;2022-11-15T05:02:08;17.90;;;12.40;;
4748;SDS011;2388;53.582;9.962;2022-11-15T05:04:33;18.30;;;12.63;;
4748;SDS011;2388;53.582;9.962;2022-11-15T05:06:59;17.37;;;13.07;;
4748;SDS011;2388;53.582;9.962;2022-11-15T05:09:24;20.63;;;13.70;;
4748;SDS011;2388;53.582;9.962;2022-11-15T05:11:50;19.17;;;13.23;;
4748;SDS011;2388;53.582;9.962;2022-11-15T05:14:15;17.73;;;12.90;;
4748;SDS011;2388;53.582;9.962;2022-11-15T05:16:41;19.43;;;13.60;;
4748;SDS011;2388;53.582;9.962;2022-11-15T05:19:07;18.57;;;13.20;;
4748;SDS011;2388;53.582;9.962;2022-11-15T05:21:33;20.80;;;13.40;;
4748;SDS011;2388;53.582;9.962;2022-11-15T05:23:59;16.37;;;12.00;;
4748;SDS011;2388;53.582;9.962;2022-11-15T05:26:25;20.07;;;12.40;;
4748;SDS011;2388;53.582;9.962;2022-11-15T05:28:55;17.53;;;12.67;;
4748;SDS011;2388;53.582;9.962;2022-11-15T05:31:22;18.53;;;12.37;;
4748;SDS011;2388;53.582;9.962;2022-11-15T05:33:49;21.70;;;13.60;;
4748;SDS011;2388;53.582;9.962;2022-11-15T05:36:24;18.30;;;12.40;;
4748;SDS011;2388;53.582;9.962;2022-11-15T05:38:50;19.20;;;13.20;;
4748;SDS011;2388;53.582;9.962;2022-11-15T05:41:16;20.07;;;12.90;;
4748;SDS011;2388;53.582;9.962;2022-11-15T05:43:45;23.70;;;12.53;;
4748;SDS011;2388;53.582;9.962;2022-11-15T05:46:12;16.93;;;11.40;;
4748;SDS011;2388;53.582;9.962;2022-11-15T05:48:39;17.63;;;11.53;;
4748;SDS011;2388;53.582;9.962;2022-11-15T05:51:07;18.10;;;12.80;;
4748;SDS011;2388;53.582;9.962;2022-11-15T05:53:33;18.03;;;12.37;;
4748;SDS011;2388;53.582;9.962;2022-11-15T05:56:00;16.37;;;11.90;;
4748;SDS011;2388;53.582;9.962;2022-11-15T05:58:27;14.90;;;11.60;;
4748;SDS011;2388;53.582;9.962;2022-11-15T06:00:52;15.30;;;11.43;;
4748;SDS011;2388;53.582;9.962;2022-11-15T06:03:19;16.43;;;11.43;;
4748;SDS011;2388;53.582;9.962;2022-11-15T06:05:45;18.87;;;11.67;;
4748;SDS011;2388;53.582;9.962;2022-11-15T06:08:10;17.00;;;11.50;;
4748;SDS011;2388;53.582;9.962;2022-11-15T06:10:36;18.60;;;11.70;;
4748;SDS011;2388;53.582;9.962;2022-11-15T06:13:02;14.47;;;11.00;;
4748;SDS011;2388;53.582;9.962;2022-11-15T06:15:28;17.00;;;10.23;;
4748;SDS011;2388;53.582;9.962;2022-11-15T06:17:57;17.13;;;12.10;;
4748;SDS011;2388;53.582;9.962;2022-11-15T06:20:24;14.93;;;11.80;;
4748;SDS011;2388;53.582;9.962;2022-11-15T06:22:50;15.37;;;11.60;;
4748;SDS011;2388;53.582;9.962;2022-11-15T06:25:15;17.40;;;11.63;;
4748;SDS011;2388;53.582;9.962;2022-11-15T06:27:41;16.67;;;11.53;;
4748;SDS011;2388;53.582;9.962;2022-11-15T06:30:06;20.03;;;13.23;;
4748;SDS011;2388;53.582;9.962;2022-11-15T06:32:32;15.77;;;11.80;;
4748;SDS011;2388;53.582;9.962;2022-11-15T06:34:58;18.50;;;11.67;;
4748;SDS011;2388;53.582;9.962;2022-11-15T06:37:23;14.50;;;10.93;;
4748;SDS011;2388;53.582;9.962;2022-11-15T06:39:48;17.67;;;11.73;;
4748;SDS011;2388;53.582;9.962;2022-11-15T06:42:14;18.30;;;11.60;;
4748;SDS011;2388;53.582;9.962;2022-11-15T06:44:39;16.00;;;10.73;;
4748;SDS011;2388;53.582;9.962;2022-11-15T06:47:05;16.87;;;11.63;;
4748;SDS011;2388;53.582;9.962;2022-11-15T06:49:30;25.50;;;12.10;;
4748;SDS011;2388;53.582;9.962;2022-11-15T06:51:56;16.17;;;11.30;;
4748;SDS011;2388;53.582;9.962;2022-11-15T06:54:21;17.67;;;12.40;;
4748;SDS011;2388;53.582;9.962;2022-11-15T06:56:47;15.73;;;11.23;;
4748;SDS011;2388;53.582;9.962;2022-11-15T06:59:12;15.70;;;11.80;;
4748;SDS011;2388;53.582;9.962;2022-11-15T07:01:38;14.23;;;10.70;;
4748;SDS011;2388;53.582;9.962;2022-11-15T07:04:03;16.00;;;11.50;;
4748;SDS011;2388;53.582;9.962;2022-11-15T07:06:29;14.87;;;11.57;;
4748;SDS011;2388;53.582;9.962;2022-11-15T07:08:54;17.50;;;11.57;;
4748;SDS011;2388;53.582;9.962;2022-11-15T07:11:20;20.73;;;11.70;;
4748;SDS011;2388;53.582;9.962;2022-11-15T07:13:45;20.93;;;12.73;;
4748;SDS011;2388;53.582;9.962;2022-11-15T07:16:11;19.60;;;12.60;;
4748;SDS011;2388;53.582;9.962;2022-11-15T07:18:37;15.63;;;11.47;;
4748;SDS011;2388;53.582;9.962;2022-11-15T07:21:04;18.77;;;12.23;;
4748;SDS011;2388;53.582;9.962;2022-11-15T07:23:31;19.43;;;12.30;;
4748;SDS011;2388;53.582;9.962;2022-11-15T07:25:57;17.23;;;12.10;;
4748;SDS011;2388;53.582;9.962;2022-11-15T07:28:23;21.13;;;11.90;;
4748;SDS011;2388;53.582;9.962;2022-11-15T07:30:49;15.50;;;11.90;;
4748;SDS011;2388;53.582;9.962;2022-11-15T07:33:15;19.20;;;12.87;;
4748;SDS011;2388;53.582;9.962;2022-11-15T07:35:40;22.80;;;11.53;;
4748;SDS011;2388;53.582;9.962;2022-11-15T07:38:07;20.43;;;12.43;;
4748;SDS011;2388;53.582;9.962;2022-11-15T07:40:33;19.30;;;12.07;;
4748;SDS011;2388;53.582;9.962;2022-11-15T07:43:02;15.50;;;11.20;;
4748;SDS011;2388;53.582;9.962;2022-11-15T07:45:30;17.70;;;12.30;;
4748;SDS011;2388;53.582;9.962;2022-11-15T07:47:56;16.47;;;11.87;;
4748;SDS011;2388;53.582;9.962;2022-11-15T07:50:22;18.73;;;12.10;;
4748;SDS011;2388;53.582;9.962;2022-11-15T07:52:52;23.33;;;13.27;;
4748;SDS011;2388;53.582;9.962;2022-11-15T07:55:19;17.63;;;11.63;;
4748;SDS011;2388;53.582;9.962;2022-11-15T07:57:45;21.17;;;11.97;;
4748;SDS011;2388;53.582;9.962;2022-11-15T08:00:10;20.77;;;12.40;;
4748;SDS011;2388;53.582;9.962;2022-11-15T08:02:36;17.87;;;11.27;;
4748;SDS011;2388;53.582;9.962;2022-11-15T08:05:02;16.30;;;11.97;;
4748;SDS011;2388;53.582;9.962;2022-11-15T08:07:29;16.20;;;12.60;;
4748;SDS011;2388;53.582;9.962;2022-11-15T08:09:56;15.17;;;11.40;;
4748;SDS011;2388;53.582;9.962;2022-11-15T08:12:22;15.40;;;12.00;;
4748;SDS011;2388;53.582;9.962;2022-11-15T08:14:47;23.33;;;11.97;;
4748;SDS011;2388;53.582;9.962;2022-11-15T08:17:13;16.43;;;11.63;;
4748;SDS011;2388;53.582;9.962;2022-11-15T08:19:38;17.60;;;12.00;;
4748;SDS011;2388;53.582;9.962;2022-11-15T08:22:04;17.27;;;12.90;;
4748;SDS011;2388;53.582;9.962;2022-11-15T08:24:29;19.50;;;11.80;;
4748;SDS011;2388;53.582;9.962;2022-11-15T08:26:55;17.77;;;10.73;;
4748;SDS011;2388;53.582;9.962;2022-11-15T08:29:20;18.73;;;12.20;;
4748;SDS011;2388;53.582;9.962;2022-11-15T08:31:46;18.43;;;12.10;;
4748;SDS011;2388;53.582;9.962;2022-11-15T08:34:12;17.77;;;12.23;;
4748;SDS011;2388;53.582;9.962;2022-11-15T08:36:37;25.90;;;17.00;;
4748;SDS011;2388;53.582;9.962;2022-11-15T08:39:02;22.13;;;13.67;;
4748;SDS011;2388;53.582;9.962;2022-11-15T08:41:32;18.93;;;11.90;;
4748;SDS011;2388;53.582;9.962;2022-11-15T08:44:00;15.27;;;11.67;;
4748;SDS011;2388;53.582;9.962;2022-11-15T08:46:26;15.10;;;11.87;;
4748;SDS011;2388;53.582;9.962;2022-11-15T08:48:52;21.67;;;13.10;;
4748;SDS011;2388;53.582;9.962;2022-11-15T08:51:17;18.20;;;11.90;;
4748;SDS011;2388;53.582;9.962;2022-11-15T08:53:43;19.40;;;12.37;;
4748;SDS011;2388;53.582;9.962;2022-11-15T08:56:09;18.67;;;12.50;;
4748;SDS011;2388;53.582;9.962;2022-11-15T08:58:36;18.70;;;12.30;;
4748;SDS011;2388;53.582;9.962;2022-11-15T09:01:02;43.47;;;28.33;;
4748;SDS011;2388;53.582;9.962;2022-11-15T09:03:28;25.33;;;18.60;;
4748;SDS011;2388;53.582;9.962;2022-11-15T09:05:55;25.60;;;17.23;;
4748;SDS011;2388;53.582;9.962;2022-11-15T09:08:25;24.80;;;15.20;;
4748;SDS011;2388;53.582;9.962;2022-11-15T09:10:54;22.33;;;14.00;;
4748;SDS011;2388;53.582;9.962;2022-11-15T09:13:19;21.23;;;15.50;;
4748;SDS011;2388;53.582;9.962;2022-11-15T09:15:45;14.70;;;11.90;;
4748;SDS011;2388;53.582;9.962;2022-11-15T09:18:10;20.90;;;12.80;;
4748;SDS011;2388;53.582;9.962;2022-11-15T09:20:36;17.50;;;11.67;;
4748;SDS011;2388;53.582;9.962;2022-11-15T09:23:01;17.47;;;11.63;;
4748;SDS011;2388;53.582;9.962;2022-11-15T09:25:28;17.77;;;11.77;;
4748;SDS011;2388;53.582;9.962;2022-11-15T09:27:54;20.00;;;12.23;;
4748;SDS011;2388;53.582;9.962;2022-11-15T09:30:19;17.80;;;11.47;;
4748;SDS011;2388;53.582;9.962;2022-11-15T09:32:45;23.97;;;17.47;;
4748;SDS011;2388;53.582;9.962;2022-11-15T09:35:10;22.90;;;14.40;;
4748;SDS011;2388;53.582;9.962;2022-11-15T09:37:36;19.13;;;14.10;;
4748;SDS011;2388;53.582;9.962;2022-11-15T09:40:02;18.63;;;12.53;;
4748;SDS011;2388;53.582;9.962;2022-11-15T09:45:28;15.73;;;10.33;;
4748;SDS011;2388;53.582;9.962;2022-11-15T09:50:38;21.20;;;10.97;;
4748;SDS011;2388;53.582;9.962;2022-11-15T09:53:09;17.33;;;11.00;;
4748;SDS011;2388;53.582;9.962;2022-11-15T09:55:47;13.53;;;11.47;;
4748;SDS011;2388;53.582;9.962;2022-11-15T09:58:26;18.10;;;11.40;;
4748;SDS011;2388;53.582;9.962;2022-11-15T10:00:55;19.80;;;11.40;;
4748;SDS011;2388;53.582;9.962;2022-11-15T10:03:27;15.30;;;10.80;;
4748;SDS011;2388;53.582;9.962;2022-11-15T10:06:00;14.37;;;11.10;;
4748;SDS011;2388;53.582;9.962;2022-11-15T10:08:40;17.37;;;12.63;;
4748;SDS011;2388;53.582;9.962;2022-11-15T10:11:20;16.40;;;11.00;;
4748;SDS011;2388;53.582;9.962;2022-11-15T10:13:49;18.00;;;11.10;;
4748;SDS011;2388;53.582;9.962;2022-11-15T10:24:43;16.70;;;11.63;;
4748;SDS011;2388;53.582;9.962;2022-11-15T10:27:11;15.90;;;13.13;;
4748;SDS011;2388;53.582;9.962;2022-11-15T10:29:45;14.00;;;11.90;;
4748;SDS011;2388;53.582;9.962;2022-11-15T10:32:16;14.60;;;10.47;;
4748;SDS011;2388;53.582;9.962;2022-11-15T10:34:43;58.43;;;35.03;;
4748;SDS011;2388;53.582;9.962;2022-11-15T10:37:09;28.03;;;17.83;;
4748;SDS011;2388;53.582;9.962;2022-11-15T10:39:34;17.30;;;11.67;;
4748;SDS011;2388;53.582;9.962;2022-11-15T10:42:45;23.60;;;13.37;;
4748;SDS011;2388;53.582;9.962;2022-11-15T10:44:53;14.90;;;11.10;;
4748;SDS011;2388;53.582;9.962;2022-11-15T10:49:53;15.50;;;9.70;;
4748;SDS011;2388;53.582;9.962;2022-11-15T10:52:30;11.93;;;10.00;;
4748;SDS011;2388;53.582;9.962;2022-11-15T10:57:35;13.67;;;9.23;;
4748;SDS011;2388;53.582;9.962;2022-11-15T11:05:30;13.87;;;9.90;;
4748;SDS011;2388;53.582;9.962;2022-11-15T11:10:54;30.90;;;20.73;;
4748;SDS011;2388;53.582;9.962;2022-11-15T11:13:27;17.20;;;13.30;;
4748;SDS011;2388;53.582;9.962;2022-11-15T11:18:42;18.27;;;11.50;;
4748;SDS011;2388;53.582;9.962;2022-11-15T11:21:10;14.70;;;12.20;;
4748;SDS011;2388;53.582;9.962;2022-11-15T11:24:01;10.20;;;8.70;;
4748;SDS011;2388;53.582;9.962;2022-11-15T11:26:35;17.67;;;9.07;;
4748;SDS011;2388;53.582;9.962;2022-11-15T11:37:04;16.07;;;9.83;;
4748;SDS011;2388;53.582;9.962;2022-11-15T11:42:35;13.63;;;9.30;;
4748;SDS011;2388;53.582;9.962;2022-11-15T11:45:19;26.63;;;10.50;;
4748;SDS011;2388;53.582;9.962;2022-11-15T11:48:13;11.97;;;9.17;;
4748;SDS011;2388;53.582;9.962;2022-11-15T11:50:47;12.77;;;8.40;;
4748;SDS011;2388;53.582;9.962;2022-11-15T11:53:15;16.40;;;10.33;;
4748;SDS011;2388;53.582;9.962;2022-11-15T11:55:53;14.80;;;8.87;;
4748;SDS011;2388;53.582;9.962;2022-11-15T11:58:27;11.37;;;9.13;;
4748;SDS011;2388;53.582;9.962;2022-11-15T12:01:41;14.40;;;8.77;;
4748;SDS011;2388;53.582;9.962;2022-11-15T12:03:54;9.50;;;8.50;;
4748;SDS011;2388;53.582;9.962;2022-11-15T12:06:54;10.03;;;7.97;;
4748;SDS011;2388;53.582;9.962;2022-11-15T12:09:33;12.47;;;9.30;;
4748;SDS011;2388;53.582;9.962;2022-11-15T12:15:15;14.00;;;7.97;;
4748;SDS011;2388;53.582;9.962;2022-11-15T12:17:47;13.60;;;9.33;;
4748;SDS011;2388;53.582;9.962;2022-11-15T12:22:58;12.30;;;8.93;;
4748;SDS011;2388;53.582;9.962;2022-11-15T12:25:46;13.47;;;8.37;;
4748;SDS011;2388;53.582;9.962;2022-11-15T12:31:44;17.07;;;8.63;;
4748;SDS011;2388;53.582;9.962;2022-11-15T12:36:48;11.50;;;7.63;;
4748;SDS011;2388;53.582;9.962;2022-11-15T12:39:15;16.77;;;9.33;;
4748;SDS011;2388;53.582;9.962;2022-11-15T12:41:42;13.90;;;7.63;;
4748;SDS011;2388;53.582;9.962;2022-11-15T12:44:56;10.50;;;7.97;;
4748;SDS011;2388;53.582;9.962;2022-11-15T12:47:13;9.87;;;8.60;;
4748;SDS011;2388;53.582;9.962;2022-11-15T12:49:48;12.30;;;8.80;;
4748;SDS011;2388;53.582;9.962;2022-11-15T12:52:14;11.30;;;7.87;;
4748;SDS011;2388;53.582;9.962;2022-11-15T13:02:24;12.83;;;7.20;;
4748;SDS011;2388;53.582;9.962;2022-11-15T13:05:25;14.20;;;7.57;;
4748;SDS011;2388;53.582;9.962;2022-11-15T13:17:38;8.50;;;7.30;;
4748;SDS011;2388;53.582;9.962;2022-11-15T13:20:18;12.70;;;7.43;;
4748;SDS011;2388;53.582;9.962;2022-11-15T13:30:39;11.67;;;7.60;;
4748;SDS011;2388;53.582;9.962;2022-11-15T13:33:15;10.37;;;8.13;;
4748;SDS011;2388;53.582;9.962;2022-11-15T13:35:45;9.63;;;7.70;;
4748;SDS011;2388;53.582;9.962;2022-11-15T13:40:52;10.53;;;8.20;;
4748;SDS011;2388;53.582;9.962;2022-11-15T13:48:37;10.00;;;7.53;;
4748;SDS011;2388;53.582;9.962;2022-11-15T13:51:04;14.03;;;8.10;;
4748;SDS011;2388;53.582;9.962;2022-11-15T13:53:46;8.80;;;7.20;;
4748;SDS011;2388;53.582;9.962;2022-11-15T13:56:30;9.53;;;7.60;;
4748;SDS011;2388;53.582;9.962;2022-11-15T13:58:57;15.50;;;8.57;;
4748;SDS011;2388;53.582;9.962;2022-11-15T14:01:23;9.83;;;7.90;;
4748;SDS011;2388;53.582;9.962;2022-11-15T14:06:23;10.20;;;7.17;;
4748;SDS011;2388;53.582;9.962;2022-11-15T14:11:35;11.37;;;8.33;;
4748;SDS011;2388;53.582;9.962;2022-11-15T14:16:37;6.97;;;6.30;;
4748;SDS011;2388;53.582;9.962;2022-11-15T14:19:05;11.00;;;7.27;;
4748;SDS011;2388;53.582;9.962;2022-11-15T14:21:34;14.40;;;7.80;;
4748;SDS011;2388;53.582;9.962;2022-11-15T14:24:16;9.03;;;7.40;;
4748;SDS011;2388;53.582;9.962;2022-11-15T14:26:43;11.63;;;7.30;;
4748;SDS011;2388;53.582;9.962;2022-11-15T14:29:25;13.03;;;7.37;;
4748;SDS011;2388;53.582;9.962;2022-11-15T14:31:52;7.73;;;7.00;;
4748;SDS011;2388;53.582;9.962;2022-11-15T14:34:18;9.37;;;7.17;;
4748;SDS011;2388;53.582;9.962;2022-11-15T14:36:46;9.40;;;7.30;;
4748;SDS011;2388;53.582;9.962;2022-11-15T14:39:12;12.60;;;6.57;;
4748;SDS011;2388;53.582;9.962;2022-11-15T14:41:37;9.07;;;7.23;;
4748;SDS011;2388;53.582;9.962;2022-11-15T14:44:03;10.87;;;7.10;;
4748;SDS011;2388;53.582;9.962;2022-11-15T14:46:30;10.17;;;7.33;;
4748;SDS011;2388;53.582;9.962;2022-11-15T14:48:55;10.33;;;8.23;;
4748;SDS011;2388;53.582;9.962;2022-11-15T14:51:21;10.30;;;7.60;;
4748;SDS011;2388;53.582;9.962;2022-11-15T14:53:46;12.00;;;7.50;;
4748;SDS011;2388;53.582;9.962;2022-11-15T14:56:13;10.10;;;6.93;;
4748;SDS011;2388;53.582;9.962;2022-11-15T14:58:39;8.53;;;7.23;;
4748;SDS011;2388;53.582;9.962;2022-11-15T15:03:36;12.27;;;8.90;;
4748;SDS011;2388;53.582;9.962;2022-11-15T15:06:01;13.83;;;6.90;;
4748;SDS011;2388;53.582;9.962;2022-11-15T15:08:27;12.40;;;7.80;;
4748;SDS011;2388;53.582;9.962;2022-11-15T15:10:52;8.73;;;6.80;;
4748;SDS011;2388;53.582;9.962;2022-11-15T15:13:19;13.17;;;6.60;;
4748;SDS011;2388;53.582;9.962;2022-11-15T15:15:46;10.27;;;6.90;;
4748;SDS011;2388;53.582;9.962;2022-11-15T15:18:12;7.87;;;6.60;;
4748;SDS011;2388;53.582;9.962;2022-11-15T15:20:38;9.90;;;7.17;;
4748;SDS011;2388;53.582;9.962;2022-11-15T15:23:05;8.50;;;7.50;;
4748;SDS011;2388;53.582;9.962;2022-11-15T15:25:34;13.73;;;7.60;;
4748;SDS011;2388;53.582;9.962;2022-11-15T15:28:00;10.27;;;7.67;;
4748;SDS011;2388;53.582;9.962;2022-11-15T15:30:27;8.00;;;6.40;;
4748;SDS011;2388;53.582;9.962;2022-11-15T15:32:54;9.40;;;7.43;;
4748;SDS011;2388;53.582;9.962;2022-11-15T15:35:20;9.70;;;7.20;;
4748;SDS011;2388;53.582;9.962;2022-11-15T15:37:46;10.67;;;7.63;;
4748;SDS011;2388;53.582;9.962;2022-11-15T15:40:14;9.80;;;7.57;;
4748;SDS011;2388;53.582;9.962;2022-11-15T15:42:45;10.93;;;7.97;;
4748;SDS011;2388;53.582;9.962;2022-11-15T15:45:12;11.30;;;7.80;;
4748;SDS011;2388;53.582;9.962;2022-11-15T15:47:38;8.70;;;7.60;;
4748;SDS011;2388;53.582;9.962;2022-11-15T15:50:04;11.70;;;8.97;;
4748;SDS011;2388;53.582;9.962;2022-11-15T15:52:41;9.03;;;7.40;;
4748;SDS011;2388;53.582;9.962;2022-11-15T15:55:07;9.90;;;7.73;;
4748;SDS011;2388;53.582;9.962;2022-11-15T15:57:33;10.03;;;8.20;;
4748;SDS011;2388;53.582;9.962;2022-11-15T15:59:59;9.63;;;6.80;;
4748;SDS011;2388;53.582;9.962;2022-11-15T16:02:24;8.50;;;7.10;;
4748;SDS011;2388;53.582;9.962;2022-11-15T16:04:50;11.93;;;7.67;;
4748;SDS011;2388;53.582;9.962;2022-11-15T16:07:16;8.27;;;7.40;;
4748;SDS011;2388;53.582;9.962;2022-11-15T16:09:46;10.70;;;7.17;;
4748;SDS011;2388;53.582;9.962;2022-11-15T16:12:27;12.70;;;8.17;;
4748;SDS011;2388;53.582;9.962;2022-11-15T16:14:54;9.50;;;7.63;;
4748;SDS011;2388;53.582;9.962;2022-11-15T16:17:23;8.10;;;6.70;;
4748;SDS011;2388;53.582;9.962;2022-11-15T16:19:51;13.97;;;8.60;;
4748;SDS011;2388;53.582;9.962;2022-11-15T16:22:17;14.37;;;8.27;;
4748;SDS011;2388;53.582;9.962;2022-11-15T16:24:42;11.27;;;8.93;;
4748;SDS011;2388;53.582;9.962;2022-11-15T16:27:17;9.40;;;7.97;;
4748;SDS011;2388;53.582;9.962;2022-11-15T16:29:45;9.00;;;7.40;;
4748;SDS011;2388;53.582;9.962;2022-11-15T16:32:12;8.97;;;7.60;;
4748;SDS011;2388;53.582;9.962;2022-11-15T16:34:37;12.30;;;8.20;;
4748;SDS011;2388;53.582;9.962;2022-11-15T16:37:03;11.27;;;7.40;;
4748;SDS011;2388;53.582;9.962;2022-11-15T16:39:30;12.37;;;7.90;;
4748;SDS011;2388;53.582;9.962;2022-11-15T16:41:56;11.63;;;8.73;;
4748;SDS011;2388;53.582;9.962;2022-11-15T16:44:22;10.77;;;7.60;;
4748;SDS011;2388;53.582;9.962;2022-11-15T16:46:49;10.60;;;8.00;;
4748;SDS011;2388;53.582;9.962;2022-11-15T16:49:18;10.77;;;8.23;;
4748;SDS011;2388;53.582;9.962;2022-11-15T16:51:46;10.00;;;7.50;;
4748;SDS011;2388;53.582;9.962;2022-11-15T16:54:12;12.70;;;8.53;;
4748;SDS011;2388;53.582;9.962;2022-11-15T16:56:38;8.50;;;7.40;;
4748;SDS011;2388;53.582;9.962;2022-11-15T16:59:04;9.73;;;7.63;;
4748;SDS011;2388;53.582;9.962;2022-11-15T17:01:31;11.93;;;8.10;;
4748;SDS011;2388;53.582;9.962;2022-11-15T17:03:59;18.60;;;12.10;;
4748;SDS011;2388;53.582;9.962;2022-11-15T17:06:36;24.77;;;14.87;;
4748;SDS011;2388;53.582;9.962;2022-11-15T17:09:03;12.30;;;7.83;;